sensor_id;sensor_type;location;lat;lon;timestamp;temperature;humidity
71039;SHT30;58692;43.212;27.908;2024-01-06T00:01:11;11.00;71.74
71039;SHT30;58692;43.212;27.908;2024-01-06T00:03:37;11.07;71.91
71039;SHT30;58692;43.212;27.908;2024-01-06T00:06:03;11.04;71.81
71039;SHT30;58692;43.212;27.908;2024-01-06T00:08:29;11.04;71.76
71039;SHT30;58692;43.212;27.908;2024-01-06T00:10:54;11.04;71.81
71039;SHT30;58692;43.212;27.908;2024-01-06T00:13:20;11.03;71.89
71039;SHT30;58692;43.212;27.908;2024-01-06T00:15:46;11.03;71.93
71039;SHT30;58692;43.212;27.908;2024-01-06T00:18:12;10.96;72.19
71039;SHT30;58692;43.212;27.908;2024-01-06T00:20:37;10.97;72.15
71039;SHT30;58692;43.212;27.908;2024-01-06T00:23:04;10.96;72.22
71039;SHT30;58692;43.212;27.908;2024-01-06T00:25:29;10.99;71.90
71039;SHT30;58692;43.212;27.908;2024-01-06T00:27:55;11.03;72.03
71039;SHT30;58692;43.212;27.908;2024-01-06T00:30:20;10.99;72.41
71039;SHT30;58692;43.212;27.908;2024-01-06T00:32:46;10.97;72.28
71039;SHT30;58692;43.212;27.908;2024-01-06T00:35:12;11.01;72.64
71039;SHT30;58692;43.212;27.908;2024-01-06T00:37:37;10.97;72.79
71039;SHT30;58692;43.212;27.908;2024-01-06T00:40:03;11.00;72.52
71039;SHT30;58692;43.212;27.908;2024-01-06T00:42:29;11.03;72.84
71039;SHT30;58692;43.212;27.908;2024-01-06T00:44:55;10.87;73.43
71039;SHT30;58692;43.212;27.908;2024-01-06T00:47:21;10.90;72.93
71039;SHT30;58692;43.212;27.908;2024-01-06T00:49:49;10.93;72.95
71039;SHT30;58692;43.212;27.908;2024-01-06T00:52:15;10.99;72.94
71039;SHT30;58692;43.212;27.908;2024-01-06T00:54:40;10.97;73.15
71039;SHT30;58692;43.212;27.908;2024-01-06T00:57:06;11.01;72.65
71039;SHT30;58692;43.212;27.908;2024-01-06T00:59:31;10.93;72.97
71039;SHT30;58692;43.212;27.908;2024-01-06T01:01:57;10.92;73.29
71039;SHT30;58692;43.212;27.908;2024-01-06T01:04:23;10.96;73.37
71039;SHT30;58692;43.212;27.908;2024-01-06T01:06:48;10.86;73.25
71039;SHT30;58692;43.212;27.908;2024-01-06T01:09:14;10.84;73.32
71039;SHT30;58692;43.212;27.908;2024-01-06T01:11:40;10.87;73.36
71039;SHT30;58692;43.212;27.908;2024-01-06T01:14:06;10.80;73.36
71039;SHT30;58692;43.212;27.908;2024-01-06T01:16:32;10.70;73.69
71039;SHT30;58692;43.212;27.908;2024-01-06T01:18:58;10.67;73.99
71039;SHT30;58692;43.212;27.908;2024-01-06T01:21:24;10.67;73.87
71039;SHT30;58692;43.212;27.908;2024-01-06T01:23:49;10.65;74.16
71039;SHT30;58692;43.212;27.908;2024-01-06T01:26:15;10.67;73.98
71039;SHT30;58692;43.212;27.908;2024-01-06T01:28:41;10.60;74.50
71039;SHT30;58692;43.212;27.908;2024-01-06T01:31:06;10.67;73.95
71039;SHT30;58692;43.212;27.908;2024-01-06T01:33:32;10.62;74.06
71039;SHT30;58692;43.212;27.908;2024-01-06T01:35:58;10.69;73.83
71039;SHT30;58692;43.212;27.908;2024-01-06T01:38:23;10.65;74.33
71039;SHT30;58692;43.212;27.908;2024-01-06T01:40:49;10.60;74.34
71039;SHT30;58692;43.212;27.908;2024-01-06T01:43:17;10.62;74.02
71039;SHT30;58692;43.212;27.908;2024-01-06T01:45:43;10.65;73.98
71039;SHT30;58692;43.212;27.908;2024-01-06T01:48:08;10.67;73.69
71039;SHT30;58692;43.212;27.908;2024-01-06T01:50:34;10.69;73.85
71039;SHT30;58692;43.212;27.908;2024-01-06T01:53:00;10.70;73.48
71039;SHT30;58692;43.212;27.908;2024-01-06T01:55:27;10.74;73.39
71039;SHT30;58692;43.212;27.908;2024-01-06T01:57:53;10.73;73.91
71039;SHT30;58692;43.212;27.908;2024-01-06T02:00:19;10.66;74.21
71039;SHT30;58692;43.212;27.908;2024-01-06T02:02:45;10.57;74.43
71039;SHT30;58692;43.212;27.908;2024-01-06T02:05:11;10.60;74.15
71039;SHT30;58692;43.212;27.908;2024-01-06T02:07:36;10.49;74.62
71039;SHT30;58692;43.212;27.908;2024-01-06T02:10:02;10.45;74.45
71039;SHT30;58692;43.212;27.908;2024-01-06T02:12:28;10.56;73.23
71039;SHT30;58692;43.212;27.908;2024-01-06T02:14:53;10.59;74.12
71039;SHT30;58692;43.212;27.908;2024-01-06T02:17:19;10.53;74.47
71039;SHT30;58692;43.212;27.908;2024-01-06T02:19:45;10.42;74.39
71039;SHT30;58692;43.212;27.908;2024-01-06T02:22:10;10.46;74.35
71039;SHT30;58692;43.212;27.908;2024-01-06T02:24:36;10.49;74.35
71039;SHT30;58692;43.212;27.908;2024-01-06T02:27:01;10.48;74.12
71039;SHT30;58692;43.212;27.908;2024-01-06T02:29:27;10.42;74.74
71039;SHT30;58692;43.212;27.908;2024-01-06T02:31:53;10.45;74.21
71039;SHT30;58692;43.212;27.908;2024-01-06T02:34:18;10.43;74.24
71039;SHT30;58692;43.212;27.908;2024-01-06T02:36:44;10.43;74.17
71039;SHT30;58692;43.212;27.908;2024-01-06T02:39:10;10.53;73.05
71039;SHT30;58692;43.212;27.908;2024-01-06T02:41:35;10.62;72.61
71039;SHT30;58692;43.212;27.908;2024-01-06T02:44:02;10.62;72.79
71039;SHT30;58692;43.212;27.908;2024-01-06T02:46:28;10.62;72.41
71039;SHT30;58692;43.212;27.908;2024-01-06T02:48:54;10.63;72.90
71039;SHT30;58692;43.212;27.908;2024-01-06T02:51:20;10.59;73.10
71039;SHT30;58692;43.212;27.908;2024-01-06T02:53:48;10.62;73.14
71039;SHT30;58692;43.212;27.908;2024-01-06T02:56:14;10.72;71.47
71039;SHT30;58692;43.212;27.908;2024-01-06T02:58:40;10.69;71.69
71039;SHT30;58692;43.212;27.908;2024-01-06T03:01:05;10.70;71.79
71039;SHT30;58692;43.212;27.908;2024-01-06T03:03:31;10.66;72.13
71039;SHT30;58692;43.212;27.908;2024-01-06T03:05:57;10.63;72.25
71039;SHT30;58692;43.212;27.908;2024-01-06T03:08:22;10.57;72.31
71039;SHT30;58692;43.212;27.908;2024-01-06T03:10:49;10.49;72.97
71039;SHT30;58692;43.212;27.908;2024-01-06T03:13:14;10.43;72.90
71039;SHT30;58692;43.212;27.908;2024-01-06T03:15:40;10.52;72.95
71039;SHT30;58692;43.212;27.908;2024-01-06T03:18:05;10.46;73.39
71039;SHT30;58692;43.212;27.908;2024-01-06T03:20:31;10.42;73.93
71039;SHT30;58692;43.212;27.908;2024-01-06T03:22:57;10.43;74.65
71039;SHT30;58692;43.212;27.908;2024-01-06T03:25:22;10.36;75.35
71039;SHT30;58692;43.212;27.908;2024-01-06T03:27:48;10.31;76.50
71039;SHT30;58692;43.212;27.908;2024-01-06T03:30:14;10.29;77.47
71039;SHT30;58692;43.212;27.908;2024-01-06T03:32:39;10.28;77.96
71039;SHT30;58692;43.212;27.908;2024-01-06T03:35:05;10.28;77.97
71039;SHT30;58692;43.212;27.908;2024-01-06T03:37:32;10.28;78.46
71039;SHT30;58692;43.212;27.908;2024-01-06T03:39:58;10.25;79.19
71039;SHT30;58692;43.212;27.908;2024-01-06T03:42:24;10.28;79.22
71039;SHT30;58692;43.212;27.908;2024-01-06T03:44:49;10.25;79.83
71039;SHT30;58692;43.212;27.908;2024-01-06T03:47:15;10.22;80.06
71039;SHT30;58692;43.212;27.908;2024-01-06T03:49:41;10.26;80.15
71039;SHT30;58692;43.212;27.908;2024-01-06T03:52:06;10.28;80.59
71039;SHT30;58692;43.212;27.908;2024-01-06T03:54:32;10.26;80.81
71039;SHT30;58692;43.212;27.908;2024-01-06T03:56:58;10.23;81.12
71039;SHT30;58692;43.212;27.908;2024-01-06T03:59:23;10.25;81.29
71039;SHT30;58692;43.212;27.908;2024-01-06T04:01:49;10.25;81.48
71039;SHT30;58692;43.212;27.908;2024-01-06T04:04:15;10.21;81.50
71039;SHT30;58692;43.212;27.908;2024-01-06T04:06:40;10.22;81.14
71039;SHT30;58692;43.212;27.908;2024-01-06T04:09:06;10.25;81.08
71039;SHT30;58692;43.212;27.908;2024-01-06T04:11:32;10.26;81.18
71039;SHT30;58692;43.212;27.908;2024-01-06T04:13:57;10.25;81.59
71039;SHT30;58692;43.212;27.908;2024-01-06T04:16:26;10.21;82.10
71039;SHT30;58692;43.212;27.908;2024-01-06T04:18:52;10.21;82.65
71039;SHT30;58692;43.212;27.908;2024-01-06T04:21:17;10.19;82.95
71039;SHT30;58692;43.212;27.908;2024-01-06T04:23:43;10.16;83.22
71039;SHT30;58692;43.212;27.908;2024-01-06T04:26:09;10.18;83.44
71039;SHT30;58692;43.212;27.908;2024-01-06T04:28:35;10.16;83.81
71039;SHT30;58692;43.212;27.908;2024-01-06T04:31:00;10.16;84.16
71039;SHT30;58692;43.212;27.908;2024-01-06T04:33:26;10.18;84.56
71039;SHT30;58692;43.212;27.908;2024-01-06T04:35:51;10.13;85.01
71039;SHT30;58692;43.212;27.908;2024-01-06T04:38:17;10.11;85.17
71039;SHT30;58692;43.212;27.908;2024-01-06T04:40:43;10.12;85.44
71039;SHT30;58692;43.212;27.908;2024-01-06T04:43:08;10.12;85.38
71039;SHT30;58692;43.212;27.908;2024-01-06T04:45:34;10.18;85.13
71039;SHT30;58692;43.212;27.908;2024-01-06T04:48:00;10.12;85.11
71039;SHT30;58692;43.212;27.908;2024-01-06T04:50:25;10.12;85.00
71039;SHT30;58692;43.212;27.908;2024-01-06T04:52:51;10.18;84.92
71039;SHT30;58692;43.212;27.908;2024-01-06T04:55:17;10.12;84.78
71039;SHT30;58692;43.212;27.908;2024-01-06T04:57:42;10.11;84.66
71039;SHT30;58692;43.212;27.908;2024-01-06T05:00:08;10.09;84.60
71039;SHT30;58692;43.212;27.908;2024-01-06T05:02:34;10.02;84.72
71039;SHT30;58692;43.212;27.908;2024-01-06T05:05:00;9.99;84.71
71039;SHT30;58692;43.212;27.908;2024-01-06T05:07:25;10.05;84.49
71039;SHT30;58692;43.212;27.908;2024-01-06T05:09:51;10.08;84.33
71039;SHT30;58692;43.212;27.908;2024-01-06T05:12:16;10.08;84.35
71039;SHT30;58692;43.212;27.908;2024-01-06T05:14:42;10.09;84.35
71039;SHT30;58692;43.212;27.908;2024-01-06T05:17:08;10.09;84.31
71039;SHT30;58692;43.212;27.908;2024-01-06T05:19:34;10.13;84.39
71039;SHT30;58692;43.212;27.908;2024-01-06T05:22:00;10.11;84.42
71039;SHT30;58692;43.212;27.908;2024-01-06T05:24:26;10.09;84.50
71039;SHT30;58692;43.212;27.908;2024-01-06T05:26:51;10.11;84.49
71039;SHT30;58692;43.212;27.908;2024-01-06T05:29:17;10.13;84.39
71039;SHT30;58692;43.212;27.908;2024-01-06T05:31:43;10.22;84.17
71039;SHT30;58692;43.212;27.908;2024-01-06T05:34:08;10.19;83.99
71039;SHT30;58692;43.212;27.908;2024-01-06T05:36:34;10.18;84.00
71039;SHT30;58692;43.212;27.908;2024-01-06T05:38:59;10.21;84.00
71039;SHT30;58692;43.212;27.908;2024-01-06T05:41:26;10.23;83.88
71039;SHT30;58692;43.212;27.908;2024-01-06T05:43:51;10.28;83.76
71039;SHT30;58692;43.212;27.908;2024-01-06T05:46:24;10.31;83.64
71039;SHT30;58692;43.212;27.908;2024-01-06T05:48:50;10.28;83.56
71039;SHT30;58692;43.212;27.908;2024-01-06T05:51:16;10.25;83.46
71039;SHT30;58692;43.212;27.908;2024-01-06T05:53:41;10.25;83.49
71039;SHT30;58692;43.212;27.908;2024-01-06T05:56:07;10.28;83.44
71039;SHT30;58692;43.212;27.908;2024-01-06T05:58:34;10.33;83.28
71039;SHT30;58692;43.212;27.908;2024-01-06T06:01:00;10.38;83.15
71039;SHT30;58692;43.212;27.908;2024-01-06T06:03:26;10.42;82.95
71039;SHT30;58692;43.212;27.908;2024-01-06T06:05:51;10.43;82.94
71039;SHT30;58692;43.212;27.908;2024-01-06T06:08:18;10.42;82.91
71039;SHT30;58692;43.212;27.908;2024-01-06T06:10:44;10.46;82.91
71039;SHT30;58692;43.212;27.908;2024-01-06T06:13:28;10.42;82.98
71039;SHT30;58692;43.212;27.908;2024-01-06T06:15:54;10.43;83.04
71039;SHT30;58692;43.212;27.908;2024-01-06T06:18:20;10.42;83.08
71039;SHT30;58692;43.212;27.908;2024-01-06T06:20:46;10.49;82.90
71039;SHT30;58692;43.212;27.908;2024-01-06T06:23:12;10.49;82.69
71039;SHT30;58692;43.212;27.908;2024-01-06T06:25:39;10.49;82.55
71039;SHT30;58692;43.212;27.908;2024-01-06T06:28:04;10.46;82.68
71039;SHT30;58692;43.212;27.908;2024-01-06T06:30:30;10.36;82.98
71039;SHT30;58692;43.212;27.908;2024-01-06T06:32:56;10.42;82.89
71039;SHT30;58692;43.212;27.908;2024-01-06T06:35:23;10.50;82.57
71039;SHT30;58692;43.212;27.908;2024-01-06T06:37:49;10.57;82.35
71039;SHT30;58692;43.212;27.908;2024-01-06T06:40:15;11.13;81.35
71039;SHT30;58692;43.212;27.908;2024-01-06T06:42:40;11.38;80.36
71039;SHT30;58692;43.212;27.908;2024-01-06T06:45:06;11.24;80.16
71039;SHT30;58692;43.212;27.908;2024-01-06T06:47:32;10.97;81.25
71039;SHT30;58692;43.212;27.908;2024-01-06T06:49:57;11.18;80.73
71039;SHT30;58692;43.212;27.908;2024-01-06T06:52:23;11.28;80.39
71039;SHT30;58692;43.212;27.908;2024-01-06T06:54:49;11.48;79.72
71039;SHT30;58692;43.212;27.908;2024-01-06T06:57:15;11.78;78.66
71039;SHT30;58692;43.212;27.908;2024-01-06T06:59:41;12.12;77.90
71039;SHT30;58692;43.212;27.908;2024-01-06T07:02:06;12.40;76.61
71039;SHT30;58692;43.212;27.908;2024-01-06T07:04:32;12.28;77.11
71039;SHT30;58692;43.212;27.908;2024-01-06T07:06:58;11.99;78.02
71039;SHT30;58692;43.212;27.908;2024-01-06T07:09:23;11.86;78.46
71039;SHT30;58692;43.212;27.908;2024-01-06T07:11:50;11.89;78.68
71039;SHT30;58692;43.212;27.908;2024-01-06T07:14:16;11.86;78.94
71039;SHT30;58692;43.212;27.908;2024-01-06T07:16:42;11.90;79.08
71039;SHT30;58692;43.212;27.908;2024-01-06T07:19:07;12.65;77.52
71039;SHT30;58692;43.212;27.908;2024-01-06T07:21:33;13.11;76.12
71039;SHT30;58692;43.212;27.908;2024-01-06T07:24:00;13.79;74.03
71039;SHT30;58692;43.212;27.908;2024-01-06T07:26:26;13.28;74.72
71039;SHT30;58692;43.212;27.908;2024-01-06T07:28:52;13.10;75.28
71039;SHT30;58692;43.212;27.908;2024-01-06T07:31:18;12.83;76.18
71039;SHT30;58692;43.212;27.908;2024-01-06T07:33:44;12.67;76.74
71039;SHT30;58692;43.212;27.908;2024-01-06T07:36:09;12.53;77.37
71039;SHT30;58692;43.212;27.908;2024-01-06T07:38:36;12.51;77.47
71039;SHT30;58692;43.212;27.908;2024-01-06T07:41:02;12.46;77.84
71039;SHT30;58692;43.212;27.908;2024-01-06T07:43:29;12.50;77.84
71039;SHT30;58692;43.212;27.908;2024-01-06T07:45:54;12.41;78.11
71039;SHT30;58692;43.212;27.908;2024-01-06T07:48:21;12.32;78.67
71039;SHT30;58692;43.212;27.908;2024-01-06T07:50:47;12.39;78.68
71039;SHT30;58692;43.212;27.908;2024-01-06T07:53:12;12.37;78.94
71039;SHT30;58692;43.212;27.908;2024-01-06T07:55:40;12.36;79.09
71039;SHT30;58692;43.212;27.908;2024-01-06T07:58:05;12.37;79.32
71039;SHT30;58692;43.212;27.908;2024-01-06T08:00:31;12.36;79.53
71039;SHT30;58692;43.212;27.908;2024-01-06T08:02:57;12.33;79.76
71039;SHT30;58692;43.212;27.908;2024-01-06T08:05:23;12.41;79.45
71039;SHT30;58692;43.212;27.908;2024-01-06T08:07:50;12.41;79.59
71039;SHT30;58692;43.212;27.908;2024-01-06T08:10:16;12.54;79.76
71039;SHT30;58692;43.212;27.908;2024-01-06T08:12:42;12.57;79.65
71039;SHT30;58692;43.212;27.908;2024-01-06T08:15:08;12.84;79.13
71039;SHT30;58692;43.212;27.908;2024-01-06T08:17:35;13.12;78.39
71039;SHT30;58692;43.212;27.908;2024-01-06T08:20:01;13.34;77.83
71039;SHT30;58692;43.212;27.908;2024-01-06T08:22:27;13.65;77.01
71039;SHT30;58692;43.212;27.908;2024-01-06T08:24:52;13.70;76.58
71039;SHT30;58692;43.212;27.908;2024-01-06T08:27:18;13.89;76.47
71039;SHT30;58692;43.212;27.908;2024-01-06T08:29:44;14.12;75.49
71039;SHT30;58692;43.212;27.908;2024-01-06T08:32:09;14.02;75.69
71039;SHT30;58692;43.212;27.908;2024-01-06T08:34:37;14.13;75.63
71039;SHT30;58692;43.212;27.908;2024-01-06T08:37:03;14.42;74.84
71039;SHT30;58692;43.212;27.908;2024-01-06T08:39:29;14.48;74.49
71039;SHT30;58692;43.212;27.908;2024-01-06T08:41:55;14.72;74.11
71039;SHT30;58692;43.212;27.908;2024-01-06T08:44:20;14.81;73.89
71039;SHT30;58692;43.212;27.908;2024-01-06T08:46:46;15.09;73.24
71039;SHT30;58692;43.212;27.908;2024-01-06T08:49:11;15.06;73.19
71039;SHT30;58692;43.212;27.908;2024-01-06T08:51:37;14.77;74.36
71039;SHT30;58692;43.212;27.908;2024-01-06T08:54:03;14.26;75.84
71039;SHT30;58692;43.212;27.908;2024-01-06T08:56:31;14.16;76.30
71039;SHT30;58692;43.212;27.908;2024-01-06T08:58:57;13.77;77.37
71039;SHT30;58692;43.212;27.908;2024-01-06T09:01:23;13.62;77.98
71039;SHT30;58692;43.212;27.908;2024-01-06T09:03:48;13.63;77.94
71039;SHT30;58692;43.212;27.908;2024-01-06T09:06:15;13.39;78.51
71039;SHT30;58692;43.212;27.908;2024-01-06T09:08:41;13.51;78.51
71039;SHT30;58692;43.212;27.908;2024-01-06T09:11:07;13.91;77.40
71039;SHT30;58692;43.212;27.908;2024-01-06T09:13:32;13.97;77.48
71039;SHT30;58692;43.212;27.908;2024-01-06T09:15:59;13.56;78.10
71039;SHT30;58692;43.212;27.908;2024-01-06T09:18:26;14.00;77.43
71039;SHT30;58692;43.212;27.908;2024-01-06T09:20:53;14.23;76.29
71039;SHT30;58692;43.212;27.908;2024-01-06T09:23:20;14.34;76.38
71039;SHT30;58692;43.212;27.908;2024-01-06T09:25:46;15.23;74.20
71039;SHT30;58692;43.212;27.908;2024-01-06T09:28:16;16.25;71.13
71039;SHT30;58692;43.212;27.908;2024-01-06T09:30:42;16.13;70.96
71039;SHT30;58692;43.212;27.908;2024-01-06T09:33:07;17.05;68.83
71039;SHT30;58692;43.212;27.908;2024-01-06T09:35:34;17.50;66.93
71039;SHT30;58692;43.212;27.908;2024-01-06T09:38:00;16.25;69.95
71039;SHT30;58692;43.212;27.908;2024-01-06T09:40:26;15.73;71.81
71039;SHT30;58692;43.212;27.908;2024-01-06T09:42:52;15.63;72.24
71039;SHT30;58692;43.212;27.908;2024-01-06T09:45:19;15.86;71.59
71039;SHT30;58692;43.212;27.908;2024-01-06T09:47:50;16.17;70.80
71039;SHT30;58692;43.212;27.908;2024-01-06T09:50:19;16.18;71.14
71039;SHT30;58692;43.212;27.908;2024-01-06T09:52:46;16.95;69.07
71039;SHT30;58692;43.212;27.908;2024-01-06T09:55:24;16.69;69.03
71039;SHT30;58692;43.212;27.908;2024-01-06T09:57:52;17.05;68.71
71039;SHT30;58692;43.212;27.908;2024-01-06T10:00:19;17.43;67.36
71039;SHT30;58692;43.212;27.908;2024-01-06T10:02:45;17.53;67.02
71039;SHT30;58692;43.212;27.908;2024-01-06T10:05:12;17.87;65.84
71039;SHT30;58692;43.212;27.908;2024-01-06T10:07:41;18.59;64.57
71039;SHT30;58692;43.212;27.908;2024-01-06T10:10:09;18.73;63.63
71039;SHT30;58692;43.212;27.908;2024-01-06T10:12:38;18.32;64.28
71039;SHT30;58692;43.212;27.908;2024-01-06T10:15:05;17.20;66.56
71039;SHT30;58692;43.212;27.908;2024-01-06T10:17:32;16.69;68.35
71039;SHT30;58692;43.212;27.908;2024-01-06T10:19:57;17.29;67.23
71039;SHT30;58692;43.212;27.908;2024-01-06T10:22:24;17.70;66.31
71039;SHT30;58692;43.212;27.908;2024-01-06T10:24:50;17.50;66.72
71039;SHT30;58692;43.212;27.908;2024-01-06T10:27:16;17.16;67.87
71039;SHT30;58692;43.212;27.908;2024-01-06T10:29:42;16.80;68.78
71039;SHT30;58692;43.212;27.908;2024-01-06T10:32:08;16.11;71.04
71039;SHT30;58692;43.212;27.908;2024-01-06T10:34:33;16.17;70.83
71039;SHT30;58692;43.212;27.908;2024-01-06T10:37:02;16.11;71.24
71039;SHT30;58692;43.212;27.908;2024-01-06T10:39:28;15.91;71.89
71039;SHT30;58692;43.212;27.908;2024-01-06T10:41:55;15.49;73.06
71039;SHT30;58692;43.212;27.908;2024-01-06T10:44:21;14.77;75.12
71039;SHT30;58692;43.212;27.908;2024-01-06T10:46:48;14.44;76.31
71039;SHT30;58692;43.212;27.908;2024-01-06T10:49:14;13.97;77.85
71039;SHT30;58692;43.212;27.908;2024-01-06T10:51:40;13.69;78.83
71039;SHT30;58692;43.212;27.908;2024-01-06T10:54:06;13.80;78.81
71039;SHT30;58692;43.212;27.908;2024-01-06T10:56:37;13.73;79.04
71039;SHT30;58692;43.212;27.908;2024-01-06T10:59:04;13.72;79.29
71039;SHT30;58692;43.212;27.908;2024-01-06T11:01:30;13.70;79.23
71039;SHT30;58692;43.212;27.908;2024-01-06T11:03:57;13.63;79.60
71039;SHT30;58692;43.212;27.908;2024-01-06T11:06:23;13.39;80.30
71039;SHT30;58692;43.212;27.908;2024-01-06T11:08:57;13.44;80.34
71039;SHT30;58692;43.212;27.908;2024-01-06T11:11:24;13.56;79.80
71039;SHT30;58692;43.212;27.908;2024-01-06T11:13:50;13.69;79.48
71039;SHT30;58692;43.212;27.908;2024-01-06T11:16:34;13.90;78.86
71039;SHT30;58692;43.212;27.908;2024-01-06T11:19:00;14.06;78.46
71039;SHT30;58692;43.212;27.908;2024-01-06T11:21:26;13.96;78.47
71039;SHT30;58692;43.212;27.908;2024-01-06T11:26:33;13.90;78.98
71039;SHT30;58692;43.212;27.908;2024-01-06T11:29:00;13.93;78.95
71039;SHT30;58692;43.212;27.908;2024-01-06T11:31:33;13.96;78.84
71039;SHT30;58692;43.212;27.908;2024-01-06T11:34:14;13.82;79.20
71039;SHT30;58692;43.212;27.908;2024-01-06T11:36:40;13.86;78.69
71039;SHT30;58692;43.212;27.908;2024-01-06T11:39:05;13.90;78.62
71039;SHT30;58692;43.212;27.908;2024-01-06T11:41:48;13.83;78.68
71039;SHT30;58692;43.212;27.908;2024-01-06T11:44:18;13.85;78.65
71039;SHT30;58692;43.212;27.908;2024-01-06T11:46:45;13.83;78.76
71039;SHT30;58692;43.212;27.908;2024-01-06T11:49:12;13.89;78.54
71039;SHT30;58692;43.212;27.908;2024-01-06T11:51:38;13.95;78.34
71039;SHT30;58692;43.212;27.908;2024-01-06T11:54:04;13.93;78.32
71039;SHT30;58692;43.212;27.908;2024-01-06T11:56:32;13.95;78.12
71039;SHT30;58692;43.212;27.908;2024-01-06T11:58:59;13.91;78.14
71039;SHT30;58692;43.212;27.908;2024-01-06T12:01:26;13.76;78.57
71039;SHT30;58692;43.212;27.908;2024-01-06T12:03:55;13.72;78.80
71039;SHT30;58692;43.212;27.908;2024-01-06T12:06:21;13.75;78.82
71039;SHT30;58692;43.212;27.908;2024-01-06T12:08:47;13.87;78.50
71039;SHT30;58692;43.212;27.908;2024-01-06T12:11:12;14.21;77.50
71039;SHT30;58692;43.212;27.908;2024-01-06T12:13:44;14.12;77.66
71039;SHT30;58692;43.212;27.908;2024-01-06T12:16:10;14.27;77.26
71039;SHT30;58692;43.212;27.908;2024-01-06T12:18:36;14.18;77.37
71039;SHT30;58692;43.212;27.908;2024-01-06T12:21:02;14.24;77.20
71039;SHT30;58692;43.212;27.908;2024-01-06T12:23:28;14.28;77.14
71039;SHT30;58692;43.212;27.908;2024-01-06T12:25:56;14.28;76.99
71039;SHT30;58692;43.212;27.908;2024-01-06T12:28:21;14.23;77.21
71039;SHT30;58692;43.212;27.908;2024-01-06T12:30:47;14.24;76.92
71039;SHT30;58692;43.212;27.908;2024-01-06T12:33:12;14.28;76.93
71039;SHT30;58692;43.212;27.908;2024-01-06T12:35:39;14.44;76.44
71039;SHT30;58692;43.212;27.908;2024-01-06T12:38:08;14.51;76.27
71039;SHT30;58692;43.212;27.908;2024-01-06T12:40:36;14.58;76.23
71039;SHT30;58692;43.212;27.908;2024-01-06T12:43:04;14.85;75.39
71039;SHT30;58692;43.212;27.908;2024-01-06T12:45:30;15.03;74.74
71039;SHT30;58692;43.212;27.908;2024-01-06T12:47:56;15.19;74.68
71039;SHT30;58692;43.212;27.908;2024-01-06T12:50:22;15.06;74.63
71039;SHT30;58692;43.212;27.908;2024-01-06T12:52:47;15.01;75.08
71039;SHT30;58692;43.212;27.908;2024-01-06T12:55:13;15.38;74.09
71039;SHT30;58692;43.212;27.908;2024-01-06T12:57:39;15.47;73.54
71039;SHT30;58692;43.212;27.908;2024-01-06T13:00:05;15.62;73.31
71039;SHT30;58692;43.212;27.908;2024-01-06T13:02:33;15.57;72.98
71039;SHT30;58692;43.212;27.908;2024-01-06T13:04:59;15.19;73.58
71039;SHT30;58692;43.212;27.908;2024-01-06T13:07:24;14.82;74.53
71039;SHT30;58692;43.212;27.908;2024-01-06T13:09:50;14.64;74.86
71039;SHT30;58692;43.212;27.908;2024-01-06T13:12:16;14.56;75.13
71039;SHT30;58692;43.212;27.908;2024-01-06T13:14:43;14.47;75.42
71039;SHT30;58692;43.212;27.908;2024-01-06T13:17:12;14.40;75.60
71039;SHT30;58692;43.212;27.908;2024-01-06T13:19:39;14.31;75.82
71039;SHT30;58692;43.212;27.908;2024-01-06T13:22:05;14.23;76.09
71039;SHT30;58692;43.212;27.908;2024-01-06T13:24:31;14.20;76.43
71039;SHT30;58692;43.212;27.908;2024-01-06T13:26:56;14.27;76.35
71039;SHT30;58692;43.212;27.908;2024-01-06T13:29:24;14.26;76.24
71039;SHT30;58692;43.212;27.908;2024-01-06T13:31:50;14.12;76.74
71039;SHT30;58692;43.212;27.908;2024-01-06T13:34:16;13.99;77.13
71039;SHT30;58692;43.212;27.908;2024-01-06T13:36:42;14.02;77.12
71039;SHT30;58692;43.212;27.908;2024-01-06T13:39:08;14.00;77.33
71039;SHT30;58692;43.212;27.908;2024-01-06T13:41:34;13.96;77.36
71039;SHT30;58692;43.212;27.908;2024-01-06T13:43:59;13.95;77.47
71039;SHT30;58692;43.212;27.908;2024-01-06T13:46:25;13.90;77.62
71039;SHT30;58692;43.212;27.908;2024-01-06T13:48:50;13.87;77.81
71039;SHT30;58692;43.212;27.908;2024-01-06T13:51:16;13.72;78.40
71039;SHT30;58692;43.212;27.908;2024-01-06T13:53:42;13.51;79.25
71039;SHT30;58692;43.212;27.908;2024-01-06T13:56:07;13.38;79.79
71039;SHT30;58692;43.212;27.908;2024-01-06T13:58:33;13.39;79.85
71039;SHT30;58692;43.212;27.908;2024-01-06T14:01:02;13.46;79.84
71039;SHT30;58692;43.212;27.908;2024-01-06T14:03:27;13.42;80.10
71039;SHT30;58692;43.212;27.908;2024-01-06T14:05:53;13.39;80.24
71039;SHT30;58692;43.212;27.908;2024-01-06T14:08:19;13.39;80.40
71039;SHT30;58692;43.212;27.908;2024-01-06T14:10:45;13.42;80.64
71039;SHT30;58692;43.212;27.908;2024-01-06T14:13:10;13.42;80.68
71039;SHT30;58692;43.212;27.908;2024-01-06T14:15:36;13.36;80.97
71039;SHT30;58692;43.212;27.908;2024-01-06T14:18:04;13.24;81.47
71039;SHT30;58692;43.212;27.908;2024-01-06T14:20:29;13.10;82.06
71039;SHT30;58692;43.212;27.908;2024-01-06T14:22:57;13.12;82.06
71039;SHT30;58692;43.212;27.908;2024-01-06T14:25:22;13.15;81.98
71039;SHT30;58692;43.212;27.908;2024-01-06T14:27:48;13.19;81.92
71039;SHT30;58692;43.212;27.908;2024-01-06T14:30:14;13.16;82.07
71039;SHT30;58692;43.212;27.908;2024-01-06T14:32:39;13.15;82.31
71039;SHT30;58692;43.212;27.908;2024-01-06T14:35:06;13.21;82.11
71039;SHT30;58692;43.212;27.908;2024-01-06T14:37:33;13.21;82.10
71039;SHT30;58692;43.212;27.908;2024-01-06T14:39:59;13.21;82.13
71039;SHT30;58692;43.212;27.908;2024-01-06T14:42:30;13.21;82.10
71039;SHT30;58692;43.212;27.908;2024-01-06T14:44:55;13.18;82.26
71039;SHT30;58692;43.212;27.908;2024-01-06T14:47:21;13.19;82.22
71039;SHT30;58692;43.212;27.908;2024-01-06T14:49:46;13.22;82.38
71039;SHT30;58692;43.212;27.908;2024-01-06T14:52:12;13.31;82.12
71039;SHT30;58692;43.212;27.908;2024-01-06T14:54:38;13.25;82.20
71039;SHT30;58692;43.212;27.908;2024-01-06T14:57:04;13.22;82.35
71039;SHT30;58692;43.212;27.908;2024-01-06T14:59:30;13.18;82.77
71039;SHT30;58692;43.212;27.908;2024-01-06T15:01:55;13.18;82.76
71039;SHT30;58692;43.212;27.908;2024-01-06T15:04:21;13.32;83.06
71039;SHT30;58692;43.212;27.908;2024-01-06T15:06:47;13.35;82.46
71039;SHT30;58692;43.212;27.908;2024-01-06T15:09:13;13.49;82.26
71039;SHT30;58692;43.212;27.908;2024-01-06T15:11:39;13.59;81.93